アティラウ の空港の天気 - METARとTAF

Atyrau Airport ( UATG / GUW ) - カザフスタン Atyrau
飛行場実況気象(Metar)
観測時間01/20 22:30 +05 (01/20 17:30 UTC)
風向・風速南西 7m/s
視程5000m
天気現象もや
なし
気温-8℃
湿度86%
気圧1022hPa
METARUATG 201730Z 23007MPS 5000 BR NSC M08/M10 Q1022 R14/CLRD70 NOSIG RMK QFE769/1025
過去の天気等 Google飛行場航空写真 Wunderground天気予報

過去48時間のMETAR

飛行場予報(TAF)
発表時間: 1/20 21:41 +05 (1/20 16:41 UTC)
予報対象時間: 20日23時 +05 ~ 21日23時 +05
風向・風速西南西 10m/s
視程4,000m
天気現象もや
全天を覆う雲 雲底高度 300m
21日1時 +05 ~ 21日11時 +05 に一時的に
視程2,000m
天気現象
全天を覆う雲 雲底高度 150m
TAF UATG 201641Z 2018/2118 24010MPS 4000 BR OVC010 TXM05/2110Z TNM08/2102Z
TEMPO 2020/2106 2000 SN OVC005